Time,TemperatureF,DewpointF,PressureIn,WindDirection,WindDirectionDegrees,WindSpeedMPH,WindSpeedGustMPH,Humidity,HourlyPrecipIn,Conditions,Clouds,dailyrainin,SoftwareType,DateUTC
2013-05-10 14:18:00,63.8,53.0,29.99,WNW,289,0.0,-999.0,67,-99.99,,,0.00,weatherlink.com 1.10,2013-05-10 21:18:00,
2013-05-10 14:27:00,62.4,52.0,29.99,SSE,154,0.0,-999.0,69,-99.99,,,0.00,weatherlink.com 1.10,2013-05-10 21:27:00,
2013-05-10 14:42:00,62.2,51.0,30.01,ESE,119,8.0,-999.0,68,-99.99,,,0.00,weatherlink.com 1.10,2013-05-10 21:42:00,
2013-05-10 14:57:00,64.3,52.0,30.00,WNW,302,1.0,-999.0,64,-99.99,,,0.00,weatherlink.com 1.10,2013-05-10 21:57:00,
2013-05-10 15:13:00,65.1,53.0,29.99,WNW,298,5.0,-999.0,64,-99.99,,,0.00,weatherlink.com 1.10,2013-05-10 22:13:00,
2013-05-10 15:27:00,63.5,53.0,29.98,WNW,284,0.0,-999.0,68,-99.99,,,0.00,weatherlink.com 1.10,2013-05-10 22:27:00,
2013-05-10 15:42:00,65.1,53.0,29.99,NW,312,0.0,-999.0,65,-99.99,,,0.00,weatherlink.com 1.10,2013-05-10 22:42:00,
2013-05-10 15:57:00,62.5,51.0,30.00,ESE,109,3.0,-999.0,66,-99.99,,,0.00,weatherlink.com 1.10,2013-05-10 22:57:00,
2013-05-10 16:12:00,62.5,51.0,30.01,WNW,302,1.0,-999.0,67,-99.99,,,0.00,weatherlink.com 1.10,2013-05-10 23:12:00,
2013-05-10 16:27:00,61.8,50.0,30.00,ESE,116,2.0,-999.0,65,-99.99,,,0.00,weatherlink.com 1.10,2013-05-10 23:27:00,
2013-05-10 16:42:00,61.8,49.0,30.01,NNW,339,4.0,-999.0,63,-99.99,,,0.00,weatherlink.com 1.10,2013-05-10 23:42:00,
2013-05-10 16:57:00,61.1,50.0,30.01,SSE,160,5.0,-999.0,66,-99.99,,,0.00,weatherlink.com 1.10,2013-05-10 23:57:00,
2013-05-10 17:12:00,60.5,49.0,30.01,NNW,342,2.0,-999.0,66,-99.99,,,0.00,weatherlink.com 1.10,2013-05-11 00:12:00,
2013-05-10 17:27:00,61.0,48.0,30.02,SE,131,1.0,-999.0,63,-99.99,,,0.00,weatherlink.com 1.10,2013-05-11 00:27:00,
2013-05-10 17:42:00,60.8,48.0,30.02,NE,51,0.0,-999.0,63,-99.99,,,0.00,weatherlink.com 1.10,2013-05-11 00:42:00,
2013-05-10 17:57:00,59.8,47.0,30.02,SE,124,6.0,-999.0,64,-99.99,,,0.00,weatherlink.com 1.10,2013-05-11 00:57:00,
2013-05-10 18:12:00,59.6,48.0,30.02,East,95,3.0,-999.0,65,-99.99,,,0.00,weatherlink.com 1.10,2013-05-11 01:12:00,
2013-05-10 18:27:00,59.0,49.0,30.02,SSE,162,4.0,-999.0,69,-99.99,,,0.00,weatherlink.com 1.10,2013-05-11 01:27:00,
2013-05-10 18:42:00,58.2,48.0,30.02,ESE,114,2.0,-999.0,70,-99.99,,,0.00,weatherlink.com 1.10,2013-05-11 01:42:00,
2013-05-10 18:57:00,57.9,49.0,30.03,ESE,113,0.0,-999.0,73,-99.99,,,0.00,weatherlink.com 1.10,2013-05-11 01:57:00,
2013-05-10 19:12:00,56.5,49.0,30.03,SE,126,3.0,-999.0,77,-99.99,,,0.00,weatherlink.com 1.10,2013-05-11 02:12:00,
2013-05-10 19:27:00,55.9,49.0,30.02,North,359,0.0,-999.0,78,-99.99,,,0.00,weatherlink.com 1.10,2013-05-11 02:27:00,
2013-05-10 19:42:00,55.4,49.0,30.03,SE,131,5.0,-999.0,80,-99.99,,,0.00,weatherlink.com 1.10,2013-05-11 02:42:00,
2013-05-10 19:57:00,54.7,49.0,30.03,SE,140,6.0,-999.0,80,-99.99,,,0.00,weatherlink.com 1.10,2013-05-11 02:57:00,
2013-05-10 20:12:00,54.5,48.0,30.04,ESE,123,6.0,-999.0,79,-99.99,,,0.00,weatherlink.com 1.10,2013-05-11 03:12:00,
2013-05-10 20:27:00,54.5,48.0,30.01,SSE,151,6.0,-999.0,80,-99.99,,,0.00,weatherlink.com 1.10,2013-05-11 03:27:00,
2013-05-10 20:42:00,55.1,46.0,30.02,ESE,116,2.0,-999.0,72,-99.99,,,0.00,weatherlink.com 1.10,2013-05-11 03:42:00,
2013-05-10 20:57:00,55.6,42.0,30.03,ESE,106,0.0,-999.0,61,-99.99,,,0.00,weatherlink.com 1.10,2013-05-11 03:57:00,
2013-05-10 21:12:00,55.1,43.0,30.04,ESE,120,3.0,-999.0,64,-99.99,,,0.00,weatherlink.com 1.10,2013-05-11 04:12:00,
2013-05-10 21:27:00,56.0,44.0,30.03,NE,48,0.0,-999.0,65,-99.99,,,0.00,weatherlink.com 1.10,2013-05-11 04:27:00,
2013-05-10 21:42:00,55.4,45.0,30.02,North,7,2.0,-999.0,69,-99.99,,,0.00,weatherlink.com 1.10,2013-05-11 04:42:00,
2013-05-10 21:57:00,55.1,45.0,30.03,NE,47,0.0,-999.0,70,-99.99,,,0.00,weatherlink.com 1.10,2013-05-11 04:57:00,
2013-05-10 22:12:00,54.4,46.0,30.04,NNE,18,0.0,-999.0,73,-99.99,,,0.00,weatherlink.com 1.10,2013-05-11 05:12:00,
2013-05-10 22:27:00,54.2,48.0,30.04,NNE,13,2.0,-999.0,79,-99.99,,,0.00,weatherlink.com 1.10,2013-05-11 05:27:00,
2013-05-10 22:42:00,54.0,47.0,30.05,NNW,346,0.0,-999.0,78,-99.99,,,0.00,weatherlink.com 1.10,2013-05-11 05:42:00,
2013-05-10 22:58:00,54.4,44.0,30.04,North,359,3.0,-999.0,68,-99.99,,,0.00,weatherlink.com 1.10,2013-05-11 05:58:00,
2013-05-10 23:12:00,54.8,43.0,30.05,North,353,7.0,-999.0,64,-99.99,,,0.00,weatherlink.com 1.10,2013-05-11 06:12:00,
2013-05-10 23:27:00,55.1,42.0,30.04,North,1,0.0,-999.0,61,-99.99,,,0.00,weatherlink.com 1.10,2013-05-11 06:27:00,
2013-05-10 23:42:00,54.8,42.0,30.04,North,4,4.0,-999.0,62,-99.99,,,0.00,weatherlink.com 1.10,2013-05-11 06:42:00,
2013-05-10 23:57:00,55.0,44.0,30.04,WNW,285,0.0,-999.0,66,-99.99,,,0.00,weatherlink.com 1.10,2013-05-11 06:57:00,